createdAt,value
2018-07-01T00:00:14.458Z,4.60
2018-07-01T00:00:49.171Z,5.07
2018-07-01T00:01:23.063Z,4.93
2018-07-01T00:01:57.473Z,6.90
2018-07-01T00:02:31.654Z,4.70
2018-07-01T00:03:05.517Z,5.00
2018-07-01T00:03:39.388Z,5.40
2018-07-01T00:04:13.972Z,8.30
2018-07-01T00:04:47.821Z,5.43
2018-07-01T00:05:22.065Z,4.77
2018-07-01T00:05:56.043Z,4.17
2018-07-01T00:06:30.148Z,6.10
2018-07-01T00:07:04.113Z,4.33
2018-07-01T00:07:38.011Z,5.00
2018-07-01T00:08:11.897Z,6.07
2018-07-01T00:08:45.778Z,3.60
2018-07-01T00:09:19.637Z,3.93
2018-07-01T00:09:53.512Z,3.80
2018-07-01T00:10:27.761Z,3.40
2018-07-01T00:11:01.683Z,3.27
2018-07-01T00:11:35.915Z,4.20
2018-07-01T00:12:10.423Z,4.73
2018-07-01T00:12:44.663Z,4.23
2018-07-01T00:13:18.620Z,3.97
2018-07-01T00:13:52.677Z,6.87
2018-07-01T00:14:26.690Z,6.40
2018-07-01T00:15:00.557Z,8.50
2018-07-01T00:15:34.789Z,6.13
2018-07-01T00:16:08.724Z,7.40
2018-07-01T00:16:42.677Z,9.03
2018-07-01T00:17:17.079Z,8.07
2018-07-01T00:17:50.945Z,8.67
2018-07-01T00:18:24.665Z,9.70
2018-07-01T00:18:58.803Z,9.20
2018-07-01T00:19:32.690Z,10.40
2018-07-01T00:20:07.901Z,10.90
2018-07-01T00:20:41.775Z,10.00
2018-07-01T00:21:16.337Z,11.27
2018-07-01T00:21:50.898Z,13.10
2018-07-01T00:22:24.851Z,10.50
2018-07-01T00:22:59.075Z,11.70
2018-07-01T00:23:32.964Z,10.57
2018-07-01T00:24:06.935Z,11.60
2018-07-01T00:24:40.801Z,10.77
2018-07-01T00:25:15.091Z,10.37
2018-07-01T00:25:49.025Z,9.80
2018-07-01T00:26:22.914Z,15.40
2018-07-01T00:26:56.921Z,9.50
2018-07-01T00:27:30.837Z,8.60
2018-07-01T00:28:04.755Z,9.13
2018-07-01T00:28:38.659Z,9.63
2018-07-01T00:29:12.861Z,9.40
2018-07-01T00:29:46.744Z,8.70
2018-07-01T00:30:21.019Z,8.33
2018-07-01T00:30:54.889Z,7.53
2018-07-01T00:31:29.115Z,7.87
2018-07-01T00:32:02.983Z,5.23
2018-07-01T00:32:36.903Z,10.03
2018-07-01T00:33:10.793Z,6.47
2018-07-01T00:33:44.671Z,6.03
2018-07-01T00:34:18.575Z,9.27
2018-07-01T00:34:52.809Z,8.13
2018-07-01T00:35:26.701Z,8.00
2018-07-01T00:36:01.002Z,6.80
2018-07-01T00:36:35.243Z,7.67
2018-07-01T00:37:09.119Z,6.47
2018-07-01T00:37:43.033Z,7.23
2018-07-01T00:38:17.287Z,13.57
2018-07-01T00:38:51.492Z,8.63
2018-07-01T00:39:25.176Z,8.20
2018-07-01T00:39:58.910Z,6.70
2018-07-01T00:40:33.045Z,6.90
2018-07-01T00:41:06.953Z,9.63
2018-07-01T00:41:41.045Z,6.03
2018-07-01T00:42:14.935Z,9.10
2018-07-01T00:42:48.865Z,5.47
2018-07-01T00:43:23.081Z,5.87
2018-07-01T00:43:57.309Z,6.93
2018-07-01T00:44:31.245Z,8.90
2018-07-01T00:45:05.242Z,4.93
2018-07-01T00:45:39.835Z,7.87
2018-07-01T00:46:14.905Z,9.27
2018-07-01T00:46:48.801Z,6.50
2018-07-01T00:47:23.025Z,6.43
2018-07-01T00:47:57.277Z,7.37
2018-07-01T00:48:31.325Z,9.63
2018-07-01T00:49:06.741Z,5.03
2018-07-01T00:49:40.599Z,6.87
2018-07-01T00:50:14.477Z,5.93
2018-07-01T00:50:48.335Z,8.47
2018-07-01T00:51:22.569Z,6.43
2018-07-01T00:51:56.737Z,5.30
2018-07-01T00:52:30.648Z,4.37
2018-07-01T00:53:04.859Z,6.70
2018-07-01T00:53:38.751Z,5.47
2018-07-01T00:54:12.627Z,5.60
2018-07-01T00:54:46.499Z,7.77
2018-07-01T00:55:20.485Z,5.40
2018-07-01T00:55:54.338Z,6.03
2018-07-01T00:56:28.576Z,5.10
2018-07-01T00:57:02.780Z,3.97
2018-07-01T00:57:36.681Z,5.23
2018-07-01T00:58:11.274Z,5.27
2018-07-01T00:58:45.154Z,6.30
2018-07-01T00:59:19.039Z,5.27
2018-07-01T00:59:52.903Z,5.20
2018-07-01T01:00:32.855Z,4.03
2018-07-01T01:01:06.781Z,5.87
2018-07-01T01:01:40.984Z,8.50
2018-07-01T01:02:15.547Z,5.10
2018-07-01T01:02:49.747Z,5.27
2018-07-01T01:03:23.657Z,6.27
2018-07-01T01:03:58.218Z,7.90
2018-07-01T01:04:32.429Z,5.67
2018-07-01T01:05:06.319Z,4.97
2018-07-01T01:05:40.541Z,3.57
2018-07-01T01:06:14.447Z,7.43
2018-07-01T01:06:48.647Z,5.53
2018-07-01T01:07:22.889Z,6.40
2018-07-01T01:07:57.546Z,4.53
2018-07-01T01:08:31.457Z,3.63
2018-07-01T01:09:08.773Z,5.83
2018-07-01T01:09:42.663Z,6.50
2018-07-01T01:10:17.085Z,5.17
2018-07-01T01:10:51.012Z,6.30
2018-07-01T01:11:24.921Z,6.17
2018-07-01T01:11:59.603Z,5.00
2018-07-01T01:12:33.485Z,6.10
2018-07-01T01:13:07.429Z,4.43
2018-07-01T01:13:41.226Z,5.63
2018-07-01T01:14:15.445Z,4.10
2018-07-01T01:14:49.317Z,3.83
2018-07-01T01:15:23.211Z,4.37
2018-07-01T01:15:57.093Z,4.90
2018-07-01T01:16:31.053Z,4.20
2018-07-01T01:17:04.963Z,5.37
2018-07-01T01:17:38.901Z,5.20
2018-07-01T01:18:12.789Z,5.27
2018-07-01T01:18:46.673Z,4.70
2018-07-01T01:19:20.543Z,4.63
2018-07-01T01:19:54.431Z,9.53
2018-07-01T01:20:28.305Z,6.73
2018-07-01T01:21:02.875Z,6.67
2018-07-01T01:21:37.293Z,5.00
2018-07-01T01:22:11.173Z,6.50
2018-07-01T01:22:45.199Z,5.07
2018-07-01T01:23:19.071Z,8.03
2018-07-01T01:23:52.990Z,5.37
2018-07-01T01:24:27.157Z,5.23
2018-07-01T01:25:01.017Z,3.63
2018-07-01T01:25:34.767Z,4.10
2018-07-01T01:26:08.527Z,7.00
2018-07-01T01:26:42.391Z,4.00
2018-07-01T01:27:16.237Z,5.60
2018-07-01T01:27:50.536Z,3.53
2018-07-01T01:28:24.697Z,4.13
2018-07-01T01:28:58.843Z,7.57
2018-07-01T01:29:32.687Z,4.13
2018-07-01T01:30:07.042Z,3.40
2018-07-01T01:30:40.894Z,4.67
2018-07-01T01:31:14.532Z,3.30
2018-07-01T01:31:48.351Z,6.77
2018-07-01T01:32:22.189Z,4.83
2018-07-01T01:32:56.051Z,7.30
2018-07-01T01:33:30.235Z,4.20
2018-07-01T01:34:04.157Z,6.90
2018-07-01T01:34:38.075Z,5.90
2018-07-01T01:35:12.303Z,4.50
2018-07-01T01:35:46.797Z,3.83
2018-07-01T01:36:21.209Z,5.97
2018-07-01T01:36:55.430Z,2.90
2018-07-01T01:37:29.345Z,3.40
2018-07-01T01:38:03.211Z,3.00
2018-07-01T01:38:38.853Z,4.87
2018-07-01T01:39:15.635Z,3.17
2018-07-01T01:39:49.853Z,3.17
2018-07-01T01:40:27.297Z,3.60
2018-07-01T01:41:05.691Z,3.37
2018-07-01T01:41:43.276Z,3.13
2018-07-01T01:42:22.873Z,2.97
2018-07-01T01:43:04.155Z,4.07
2018-07-01T01:43:42.875Z,5.30
2018-07-01T01:44:52.451Z,5.62
2018-07-01T01:45:32.372Z,3.80
2018-07-01T01:46:09.261Z,2.53
2018-07-01T01:46:48.012Z,4.53
2018-07-01T01:47:27.203Z,3.43
2018-07-01T01:48:07.167Z,2.83
2018-07-01T01:49:01.674Z,3.27
2018-07-01T01:49:41.013Z,3.30
2018-07-01T01:50:19.397Z,2.70
2018-07-01T01:51:06.568Z,3.03
2018-07-01T01:51:45.078Z,4.00
2018-07-01T01:52:22.127Z,4.15
2018-07-01T01:53:00.561Z,2.50
2018-07-01T01:54:38.644Z,4.90
2018-07-01T01:56:26.882Z,2.62
2018-07-01T01:57:07.144Z,2.30
2018-07-01T01:58:00.040Z,3.17
2018-07-01T01:58:38.055Z,8.73
2018-07-01T01:59:16.461Z,3.22
2018-07-01T01:59:57.211Z,2.57
2018-07-01T02:00:39.289Z,2.17
2018-07-01T02:01:22.123Z,3.70
2018-07-01T02:02:04.722Z,3.47
2018-07-01T02:02:44.630Z,3.27
2018-07-01T02:03:22.835Z,4.93
2018-07-01T02:04:01.149Z,8.50
2018-07-01T02:04:40.731Z,6.05
2018-07-01T02:05:22.150Z,1.90
2018-07-01T02:06:03.148Z,2.57
2018-07-01T02:06:41.349Z,6.53
2018-07-01T02:07:34.006Z,2.17
2018-07-01T02:08:13.702Z,4.00
2018-07-01T02:08:53.691Z,3.93
2018-07-01T02:09:29.409Z,2.23
2018-07-01T02:10:03.329Z,5.27
2018-07-01T02:10:38.135Z,4.73
2018-07-01T02:11:12.389Z,4.43
2018-07-01T02:11:49.276Z,2.80
2018-07-01T02:12:23.427Z,2.27
2018-07-01T02:12:57.285Z,4.10
2018-07-01T02:26:32.718Z,2.55
2018-07-01T02:27:07.188Z,2.27
2018-07-01T02:27:41.324Z,2.40
2018-07-01T02:28:15.493Z,3.83
2018-07-01T02:28:50.027Z,2.75
2018-07-01T02:29:24.245Z,2.75
2018-07-01T02:29:58.404Z,3.67
2018-07-01T02:30:32.753Z,2.20
2018-07-01T02:31:07.561Z,2.30
2018-07-01T02:31:43.410Z,13.13
2018-07-01T02:32:17.525Z,2.35
2018-07-01T02:32:51.677Z,2.72
2018-07-01T02:33:25.820Z,3.62
2018-07-01T02:33:59.741Z,4.10
2018-07-01T02:34:34.206Z,2.52
2018-07-01T02:35:08.440Z,1.87
2018-07-01T02:35:43.013Z,6.67
2018-07-01T02:36:17.209Z,1.80
2018-07-01T02:36:51.398Z,1.93
2018-07-01T02:37:25.971Z,6.13
2018-07-01T02:38:00.174Z,2.83
2018-07-01T02:38:34.135Z,2.63
2018-07-01T02:39:09.039Z,2.40
2018-07-01T02:39:43.194Z,5.60
2018-07-01T02:40:17.094Z,1.73
2018-07-01T02:40:50.743Z,2.17
2018-07-01T02:41:24.909Z,1.80
2018-07-01T02:41:59.141Z,2.70
2018-07-01T02:42:33.279Z,3.92
2018-07-01T02:43:07.165Z,2.33
2018-07-01T02:43:41.383Z,1.70
2018-07-01T02:44:15.599Z,1.63
2018-07-01T02:44:49.845Z,3.73
2018-07-01T02:45:24.748Z,1.72
2018-07-01T02:45:58.634Z,8.30
2018-07-01T02:46:32.805Z,1.92
2018-07-01T02:47:06.689Z,1.63
2018-07-01T02:47:40.598Z,1.70
2018-07-01T02:48:14.250Z,6.13
2018-07-01T02:48:48.062Z,3.73
2018-07-01T02:49:22.264Z,3.12
2018-07-01T02:49:56.484Z,3.57
2018-07-01T02:50:30.712Z,4.33
2018-07-01T02:51:04.642Z,2.20
2018-07-01T02:52:42.398Z,1.70
2018-07-01T02:53:16.883Z,3.17
2018-07-01T02:53:50.842Z,1.67
2018-07-01T02:54:25.649Z,3.10
2018-07-01T02:54:59.775Z,1.57
2018-07-01T02:55:34.283Z,3.35
2018-07-01T02:56:08.818Z,1.77
2018-07-01T02:56:42.695Z,3.63
2018-07-01T02:57:16.582Z,1.63
2018-07-01T02:57:50.462Z,2.90
2018-07-01T02:58:24.974Z,1.75
2018-07-01T02:58:59.438Z,2.27
2018-07-01T02:59:33.327Z,4.63
2018-07-01T03:00:07.822Z,2.00
2018-07-01T03:00:41.720Z,5.37
2018-07-01T03:01:15.867Z,1.77
2018-07-01T03:01:50.046Z,2.95
2018-07-01T03:02:23.939Z,3.10
2018-07-01T03:02:58.100Z,2.00
2018-07-01T03:03:32.016Z,5.37
2018-07-01T03:04:05.990Z,4.30
2018-07-01T03:04:40.052Z,1.60
2018-07-01T03:05:13.948Z,1.90
2018-07-01T03:05:48.231Z,1.60
2018-07-01T03:06:22.465Z,2.10
2018-07-01T03:06:57.370Z,4.72
2018-07-01T03:07:31.488Z,2.00
2018-07-01T03:08:05.603Z,3.40
2018-07-01T03:08:39.452Z,1.70
2018-07-01T03:09:14.280Z,3.87
2018-07-01T03:09:48.426Z,3.95
2018-07-01T03:10:22.589Z,1.87
2018-07-01T03:10:57.128Z,3.13
2018-07-01T03:11:31.067Z,1.93
2018-07-01T03:12:05.422Z,2.17
2018-07-01T03:12:39.265Z,1.47
2018-07-01T03:13:13.504Z,1.77
2018-07-01T03:13:47.332Z,3.23
2018-07-01T03:14:21.198Z,1.73
2018-07-01T03:14:55.065Z,1.53
2018-07-01T03:15:30.042Z,2.77
2018-07-01T03:16:04.220Z,1.45
2018-07-01T03:16:38.710Z,3.25
2018-07-01T03:17:12.903Z,3.92
2018-07-01T03:17:47.100Z,1.60
2018-07-01T03:18:20.957Z,2.08
2018-07-01T03:18:54.974Z,1.80
2018-07-01T03:19:29.699Z,2.50
2018-07-01T03:20:03.619Z,2.93
2018-07-01T03:20:38.132Z,2.00
2018-07-01T03:21:11.997Z,3.23
2018-07-01T03:21:45.850Z,1.70
2018-07-01T03:22:20.032Z,1.67
2018-07-01T03:22:54.695Z,1.70
2018-07-01T03:23:28.834Z,3.30
2018-07-01T03:24:02.948Z,1.87
2018-07-01T03:24:37.320Z,2.10
2018-07-01T03:25:11.825Z,2.90
2018-07-01T03:25:46.165Z,1.82
2018-07-01T03:26:20.366Z,5.33
2018-07-01T03:26:54.418Z,1.70
2018-07-01T03:27:28.575Z,2.70
2018-07-01T03:28:02.750Z,2.50
2018-07-01T03:28:36.985Z,2.37
2018-07-01T03:29:10.873Z,1.40
2018-07-01T03:29:44.760Z,2.60
2018-07-01T03:30:18.662Z,1.93
2018-07-01T03:30:52.554Z,2.77
2018-07-01T03:31:26.750Z,1.60
2018-07-01T03:32:00.830Z,1.27
2018-07-01T03:32:34.697Z,1.27
2018-07-01T03:33:08.911Z,3.17
2018-07-01T03:33:43.715Z,1.93
2018-07-01T03:34:17.918Z,2.80
2018-07-01T03:34:52.179Z,2.70
2018-07-01T03:35:26.122Z,1.50
2018-07-01T03:36:00.332Z,1.93
2018-07-01T03:36:34.231Z,4.73
2018-07-01T03:37:08.120Z,2.53
2018-07-01T03:37:42.323Z,2.23
2018-07-01T03:38:16.867Z,1.87
2018-07-01T03:38:51.040Z,1.47
2018-07-01T03:39:25.473Z,2.90
2018-07-01T03:39:59.680Z,2.07
2018-07-01T03:40:33.599Z,1.20
2018-07-01T03:41:07.468Z,1.67
2018-07-01T03:41:41.791Z,3.63
2018-07-01T03:42:15.650Z,1.20
2018-07-01T03:42:49.869Z,2.47
2018-07-01T03:43:24.039Z,1.37
2018-07-01T03:43:57.953Z,3.23
2018-07-01T03:44:31.826Z,1.43
2018-07-01T03:45:06.032Z,3.57
2018-07-01T03:45:40.043Z,3.53
2018-07-01T03:46:14.241Z,1.30
2018-07-01T03:46:48.468Z,1.87
2018-07-01T03:47:22.361Z,1.43
2018-07-01T03:47:56.583Z,1.83
2018-07-01T03:48:30.795Z,1.30
2018-07-01T03:49:05.223Z,1.80
2018-07-01T03:49:39.046Z,1.20
2018-07-01T03:50:12.989Z,1.87
2018-07-01T03:50:47.053Z,1.60
2018-07-01T03:51:20.967Z,1.20
2018-07-01T03:51:54.825Z,6.23
2018-07-01T03:52:28.721Z,1.00
2018-07-01T03:53:02.703Z,1.87
2018-07-01T03:53:36.904Z,1.87
2018-07-01T03:54:10.806Z,1.47
2018-07-01T03:54:44.984Z,3.40
2018-07-01T03:55:18.857Z,1.80
2018-07-01T03:55:52.768Z,2.27
2018-07-01T03:56:26.998Z,2.03
2018-07-01T03:57:00.840Z,1.20
2018-07-01T03:57:35.201Z,3.10
2018-07-01T03:58:09.577Z,1.20
2018-07-01T03:58:43.475Z,2.23
2018-07-01T03:59:18.005Z,1.40
2018-07-01T03:59:51.870Z,2.20
2018-07-01T04:00:26.182Z,1.27
2018-07-01T04:01:00.352Z,1.63
2018-07-01T04:01:34.909Z,1.10
2018-07-01T04:02:09.148Z,1.10
2018-07-01T04:02:43.348Z,1.80
2018-07-01T04:03:17.253Z,1.00
2018-07-01T04:03:50.937Z,1.30
2018-07-01T04:04:25.305Z,1.43
2018-07-01T04:04:59.141Z,1.20
2018-07-01T04:05:32.772Z,1.53
2018-07-01T04:06:07.264Z,1.90
2018-07-01T04:06:41.116Z,0.90
2018-07-01T04:07:15.176Z,1.53
2018-07-01T04:07:49.742Z,1.77
2018-07-01T04:08:23.356Z,1.73
2018-07-01T04:08:57.480Z,1.30
2018-07-01T04:09:34.922Z,1.30
2018-07-01T04:11:12.187Z,1.63
2018-07-01T04:11:45.844Z,1.20
2018-07-01T04:12:19.668Z,6.00
2018-07-01T04:12:53.287Z,2.13
2018-07-01T04:13:27.460Z,1.90
2018-07-01T04:14:01.320Z,1.30
2018-07-01T04:14:35.163Z,1.97
2018-07-01T04:15:08.998Z,2.70
2018-07-01T04:15:42.898Z,0.90
2018-07-01T04:16:16.795Z,2.60
2018-07-01T04:16:51.033Z,1.27
2018-07-01T04:17:24.992Z,1.67
2018-07-01T04:17:58.817Z,2.20
2018-07-01T04:18:32.822Z,1.00
2018-07-01T04:19:07.044Z,1.60
2018-07-01T04:19:41.574Z,1.10
2018-07-01T04:20:15.782Z,2.60
2018-07-01T04:20:49.699Z,2.50
2018-07-01T04:21:24.089Z,0.90
2018-07-01T04:21:57.948Z,3.43
2018-07-01T04:22:31.823Z,1.73
2018-07-01T04:23:05.685Z,1.53
2018-07-01T04:23:40.629Z,1.40
2018-07-01T04:24:14.800Z,1.43
2018-07-01T04:24:48.644Z,1.23
2018-07-01T04:25:22.254Z,2.03
2018-07-01T04:25:55.990Z,2.07
2018-07-01T04:26:29.836Z,2.27
2018-07-01T04:27:03.729Z,1.83
2018-07-01T04:27:37.662Z,2.17
2018-07-01T04:28:11.832Z,1.20
2018-07-01T04:28:46.004Z,3.83
2018-07-01T04:29:19.938Z,3.73
2018-07-01T04:29:53.676Z,3.73
2018-07-01T04:30:27.868Z,1.20
2018-07-01T04:31:01.887Z,4.07
2018-07-01T04:31:36.255Z,2.30
2018-07-01T04:32:10.093Z,1.57
2018-07-01T04:32:43.986Z,2.43
2018-07-01T04:33:17.594Z,5.17
2018-07-01T04:33:51.724Z,1.20
2018-07-01T04:34:25.824Z,1.20
2018-07-01T04:34:59.674Z,2.10
2018-07-01T04:35:33.878Z,1.40
2018-07-01T04:36:07.819Z,1.70
2018-07-01T04:36:41.716Z,2.30
2018-07-01T04:37:15.886Z,1.00
2018-07-01T04:37:49.758Z,1.20
2018-07-01T04:38:24.213Z,3.63
2018-07-01T04:38:58.390Z,1.30
2018-07-01T04:39:32.246Z,1.13
2018-07-01T04:40:06.444Z,1.70
2018-07-01T04:40:40.728Z,1.33
2018-07-01T04:41:14.610Z,4.80
2018-07-01T04:41:48.716Z,1.70
2018-07-01T04:42:22.572Z,0.90
2018-07-01T04:42:56.440Z,1.37
2018-07-01T04:43:30.324Z,2.50
2018-07-01T04:44:04.718Z,1.30
2018-07-01T04:44:38.596Z,1.57
2018-07-01T04:45:12.826Z,1.30
2018-07-01T04:45:46.660Z,1.50
2018-07-01T04:46:20.549Z,1.30
2018-07-01T04:46:54.448Z,2.67
2018-07-01T04:47:28.334Z,3.43
2018-07-01T04:48:02.832Z,2.40
2018-07-01T04:48:36.706Z,1.10
2018-07-01T04:49:10.596Z,0.90
2018-07-01T04:49:44.768Z,1.97
2018-07-01T04:50:18.627Z,1.83
2018-07-01T04:50:52.518Z,2.07
2018-07-01T04:51:26.350Z,6.90
2018-07-01T04:52:00.730Z,2.23
2018-07-01T04:52:34.614Z,1.63
2018-07-01T04:53:08.508Z,2.20
2018-07-01T04:53:42.388Z,1.30
2018-07-01T04:54:16.456Z,3.43
2018-07-01T04:54:50.342Z,1.00
2018-07-01T04:55:24.715Z,1.03
2018-07-01T04:55:59.166Z,1.42
2018-07-01T04:56:33.048Z,2.57
2018-07-01T04:57:06.958Z,1.40
2018-07-01T04:57:40.894Z,0.90
2018-07-01T04:58:15.144Z,2.03
2018-07-01T04:58:49.034Z,2.83
2018-07-01T04:59:22.884Z,4.03
2018-07-01T04:59:57.080Z,3.10
2018-07-01T05:00:31.069Z,1.23
2018-07-01T05:01:05.268Z,1.40
2018-07-01T05:01:39.496Z,1.67
2018-07-01T05:02:13.772Z,1.13
2018-07-01T05:02:48.180Z,1.17
2018-07-01T05:03:22.968Z,1.60
2018-07-01T05:03:56.854Z,1.73
2018-07-01T05:04:30.788Z,1.23
2018-07-01T05:05:05.316Z,3.08
2018-07-01T05:05:39.207Z,1.80
2018-07-01T05:06:13.428Z,1.63
2018-07-01T05:06:47.632Z,1.33
2018-07-01T05:07:21.592Z,1.77
2018-07-01T05:07:56.014Z,1.57
2018-07-01T05:08:29.870Z,1.77
2018-07-01T05:09:06.221Z,1.23
2018-07-01T05:09:40.136Z,0.97
2018-07-01T05:10:14.616Z,2.40
2018-07-01T05:10:48.484Z,6.83
2018-07-01T05:11:22.738Z,2.50
2018-07-01T05:11:56.667Z,1.00
2018-07-01T05:12:30.758Z,3.87
2018-07-01T05:13:04.623Z,2.10
2018-07-01T05:13:38.686Z,1.63
2018-07-01T05:14:13.172Z,0.97
2018-07-01T05:14:47.052Z,1.00
2018-07-01T05:15:21.341Z,1.53
2018-07-01T05:15:55.228Z,1.50
2018-07-01T05:16:29.197Z,1.10
2018-07-01T05:17:03.772Z,0.97
2018-07-01T05:17:37.956Z,1.20
2018-07-01T05:18:11.850Z,0.90
2018-07-01T05:18:46.250Z,1.07
2018-07-01T05:19:20.159Z,1.57
2018-07-01T05:19:54.191Z,1.83
2018-07-01T05:20:28.421Z,1.17
2018-07-01T05:21:02.300Z,1.30
2018-07-01T05:21:36.143Z,1.10
2018-07-01T05:22:10.023Z,1.00
2018-07-01T05:22:44.015Z,1.67
2018-07-01T05:23:17.676Z,1.20
2018-07-01T05:23:51.804Z,1.57
2018-07-01T05:24:25.707Z,1.60
2018-07-01T05:24:59.592Z,0.80
2018-07-01T05:25:33.848Z,1.90
2018-07-01T05:26:07.745Z,1.23
2018-07-01T05:26:41.655Z,4.30
2018-07-01T05:27:15.791Z,0.90
2018-07-01T05:27:49.446Z,1.00
2018-07-01T05:28:23.718Z,1.27
2018-07-01T05:28:58.030Z,1.40
2018-07-01T05:29:31.932Z,2.17
2018-07-01T05:30:05.775Z,1.00
2018-07-01T05:30:39.424Z,1.50
2018-07-01T05:31:13.236Z,2.10
2018-07-01T05:31:47.426Z,1.70
2018-07-01T05:32:21.659Z,1.00
2018-07-01T05:32:56.064Z,4.20
2018-07-01T05:33:30.334Z,1.00
2018-07-01T05:34:04.534Z,1.00
2018-07-01T05:34:38.770Z,1.50
2018-07-01T05:35:12.686Z,1.47
2018-07-01T05:35:47.105Z,0.90
2018-07-01T05:36:21.379Z,1.33
2018-07-01T05:36:55.384Z,3.10
2018-07-01T05:37:29.196Z,0.93
2018-07-01T05:38:03.076Z,1.43
2018-07-01T05:38:37.287Z,0.80
2018-07-01T05:39:12.859Z,0.90
2018-07-01T05:39:47.032Z,1.77
2018-07-01T05:40:21.098Z,1.00
2018-07-01T05:40:55.280Z,1.00
2018-07-01T05:41:29.197Z,1.70
2018-07-01T05:42:03.376Z,0.90
2018-07-01T05:42:37.249Z,1.53
2018-07-01T05:43:11.210Z,1.03
2018-07-01T05:43:45.415Z,1.20
2018-07-01T05:44:19.260Z,1.00
2018-07-01T05:44:53.514Z,1.00
2018-07-01T05:45:27.397Z,2.50
2018-07-01T05:46:01.267Z,1.30
2018-07-01T05:46:35.029Z,1.00
2018-07-01T05:47:08.815Z,1.30
2018-07-01T05:47:42.706Z,0.90
2018-07-01T05:48:16.570Z,0.90
2018-07-01T05:48:51.159Z,1.17
2018-07-01T05:49:25.978Z,0.90
2018-07-01T05:50:00.335Z,1.30
2018-07-01T05:50:34.243Z,2.33
2018-07-01T05:51:08.122Z,1.40
2018-07-01T05:51:42.017Z,1.53
2018-07-01T05:52:15.876Z,2.53
2018-07-01T05:52:49.722Z,0.90
2018-07-01T05:53:23.984Z,1.73
2018-07-01T05:53:58.205Z,1.00
2018-07-01T05:54:32.875Z,1.10
2018-07-01T05:55:06.567Z,2.37
2018-07-01T05:55:40.114Z,2.17
2018-07-01T05:56:14.700Z,1.30
2018-07-01T05:56:48.619Z,1.00
2018-07-01T05:57:22.510Z,3.03
2018-07-01T05:57:57.009Z,2.30
2018-07-01T05:58:30.962Z,1.00
2018-07-01T05:59:05.210Z,1.50
2018-07-01T05:59:39.462Z,1.10
2018-07-01T06:00:13.666Z,1.50
2018-07-01T06:00:47.516Z,1.30
2018-07-01T06:01:21.731Z,0.90
2018-07-01T06:01:56.035Z,1.60
2018-07-01T06:02:30.263Z,1.00
2018-07-01T06:03:04.491Z,1.27
2018-07-01T06:03:38.375Z,2.50
2018-07-01T06:04:12.530Z,0.90
2018-07-01T06:04:46.455Z,2.13
2018-07-01T06:05:20.695Z,1.93
2018-07-01T06:05:54.619Z,1.40
2018-07-01T06:06:28.567Z,1.10
2018-07-01T06:07:02.544Z,1.10
2018-07-01T06:07:36.508Z,1.43
2018-07-01T06:08:10.297Z,4.87
2018-07-01T06:08:44.210Z,1.43
2018-07-01T06:09:18.247Z,2.13
2018-07-01T06:09:52.173Z,2.30
2018-07-01T06:10:26.086Z,1.10
2018-07-01T06:11:00.012Z,2.97
2018-07-01T06:11:33.903Z,1.63
2018-07-01T06:12:07.546Z,2.70
2018-07-01T06:12:41.283Z,2.40
2018-07-01T06:13:15.167Z,2.07
2018-07-01T06:13:49.102Z,1.30
2018-07-01T06:14:23.005Z,1.27
2018-07-01T06:14:56.867Z,1.60
2018-07-01T06:15:30.995Z,2.60
2018-07-01T06:16:05.111Z,1.27
2018-07-01T06:16:39.088Z,0.90
2018-07-01T06:17:13.110Z,2.03
2018-07-01T06:17:46.949Z,1.40
2018-07-01T06:18:20.557Z,1.60
2018-07-01T06:18:55.151Z,1.83
2018-07-01T06:19:29.413Z,2.60
2018-07-01T06:20:03.276Z,0.90
2018-07-01T06:20:37.165Z,8.67
2018-07-01T06:21:11.357Z,1.35
2018-07-01T06:21:45.235Z,0.90
2018-07-01T06:22:18.873Z,4.27
2018-07-01T06:22:52.632Z,1.00
2018-07-01T06:23:26.517Z,1.50
2018-07-01T06:24:00.738Z,0.90
2018-07-01T06:24:35.029Z,1.07
2018-07-01T06:25:09.040Z,4.93
2018-07-01T06:25:42.911Z,3.03
2018-07-01T06:26:16.890Z,2.07
2018-07-01T06:26:51.027Z,1.93
2018-07-01T06:27:24.960Z,1.40
2018-07-01T06:27:59.121Z,0.95
2018-07-01T06:28:33.013Z,3.03
2018-07-01T06:29:06.935Z,2.70
2018-07-01T06:29:40.830Z,1.43
2018-07-01T06:30:14.756Z,1.33
2018-07-01T06:30:48.701Z,2.43
2018-07-01T06:31:23.293Z,1.93
2018-07-01T06:31:57.171Z,3.90
2018-07-01T06:32:31.049Z,1.30
2018-07-01T06:33:05.135Z,2.90
2018-07-01T06:33:39.059Z,4.17
2018-07-01T06:34:13.297Z,2.03
2018-07-01T06:34:47.270Z,1.50
2018-07-01T06:35:21.143Z,1.43
2018-07-01T06:35:55.023Z,1.60
2018-07-01T06:36:28.909Z,3.60
2018-07-01T06:37:02.837Z,1.30
2018-07-01T06:37:36.521Z,2.17
2018-07-01T06:38:10.338Z,1.10
2018-07-01T06:38:44.187Z,2.90
2018-07-01T06:39:18.469Z,4.60
2018-07-01T06:39:52.361Z,1.63
2018-07-01T06:40:26.225Z,1.13
2018-07-01T06:41:00.479Z,1.03
2018-07-01T06:41:38.229Z,2.50
2018-07-01T06:42:12.107Z,1.47
2018-07-01T06:42:46.427Z,0.97
2018-07-01T06:43:20.644Z,2.03
2018-07-01T06:43:54.539Z,1.97
2018-07-01T06:44:29.164Z,1.10
2018-07-01T06:45:03.407Z,2.13
2018-07-01T06:45:38.733Z,1.37
2018-07-01T06:46:12.687Z,4.80
2018-07-01T06:46:47.261Z,2.90
2018-07-01T06:47:21.463Z,3.00
2018-07-01T06:47:55.316Z,1.80
2018-07-01T06:48:29.555Z,3.10
2018-07-01T06:49:04.283Z,1.10
2018-07-01T06:49:38.207Z,1.37
2018-07-01T06:50:12.113Z,1.50
2018-07-01T06:50:46.019Z,1.63
2018-07-01T06:51:19.951Z,2.40
2018-07-01T06:51:54.315Z,2.03
2018-07-01T06:52:28.161Z,1.00
2018-07-01T06:53:02.060Z,1.17
2018-07-01T06:53:36.125Z,1.73
2018-07-01T06:54:10.705Z,2.00
2018-07-01T06:54:44.649Z,1.17
2018-07-01T06:55:18.677Z,0.90
2018-07-01T06:55:52.816Z,1.10
2018-07-01T06:56:26.710Z,1.30
2018-07-01T06:57:00.869Z,1.07
2018-07-01T06:57:34.905Z,1.00
2018-07-01T06:58:08.800Z,1.07
2018-07-01T06:58:42.705Z,1.33
2018-07-01T06:59:16.579Z,1.27
2018-07-01T06:59:51.313Z,2.03
2018-07-01T07:00:25.210Z,0.90
2018-07-01T07:00:59.402Z,2.30
2018-07-01T07:01:33.269Z,2.80
2018-07-01T07:02:07.161Z,1.40
2018-07-01T07:02:41.557Z,2.13
2018-07-01T07:03:15.601Z,1.93
2018-07-01T07:03:49.513Z,1.60
2018-07-01T07:04:23.704Z,1.10
2018-07-01T07:04:57.643Z,1.40
2018-07-01T07:05:31.854Z,1.70
2018-07-01T07:06:05.717Z,0.90
2018-07-01T07:06:39.945Z,3.43
2018-07-01T07:07:13.837Z,1.67
2018-07-01T07:07:48.408Z,1.73
2018-07-01T07:08:22.453Z,2.53
2018-07-01T07:08:56.343Z,1.50
2018-07-01T07:09:30.544Z,2.70
2018-07-01T07:10:04.773Z,1.73
2018-07-01T07:10:38.739Z,2.17
2018-07-01T07:11:12.775Z,2.23
2018-07-01T07:11:47.059Z,8.40
2018-07-01T07:12:21.277Z,3.07
2018-07-01T07:12:55.549Z,1.60
2018-07-01T07:13:29.449Z,2.83
2018-07-01T07:14:03.539Z,3.40
2018-07-01T07:14:38.026Z,1.20
2018-07-01T07:15:12.286Z,2.40
2018-07-01T07:15:46.151Z,3.90
2018-07-01T07:16:20.093Z,2.13
2018-07-01T07:16:54.449Z,1.30
2018-07-01T07:17:28.325Z,2.40
2018-07-01T07:18:02.204Z,2.10
2018-07-01T07:18:35.883Z,2.40
2018-07-01T07:19:09.683Z,2.37
2018-07-01T07:19:43.575Z,3.00
2018-07-01T07:20:17.521Z,1.10
2018-07-01T07:20:51.403Z,1.43
2018-07-01T07:21:25.309Z,2.70
2018-07-01T07:21:59.579Z,1.10
2018-07-01T07:22:33.803Z,1.60
2018-07-01T07:23:07.844Z,2.90
2018-07-01T07:23:41.879Z,1.57
2018-07-01T07:24:15.730Z,1.00
2018-07-01T07:24:50.185Z,3.87
2018-07-01T07:25:24.121Z,1.00
2018-07-01T07:25:57.972Z,2.93
2018-07-01T07:26:32.347Z,1.30
2018-07-01T07:27:06.201Z,3.67
2018-07-01T07:27:40.057Z,2.07
2018-07-01T07:28:13.728Z,1.17
2018-07-01T07:28:47.841Z,2.40
2018-07-01T07:29:21.985Z,0.90
2018-07-01T07:29:55.872Z,1.40
2018-07-01T07:30:35.191Z,1.43
2018-07-01T07:31:09.066Z,1.00
2018-07-01T07:31:42.988Z,2.67
2018-07-01T07:32:16.871Z,2.00
2018-07-01T07:32:50.766Z,1.33
2018-07-01T07:33:25.340Z,1.10
2018-07-01T07:33:59.275Z,1.13
2018-07-01T07:34:33.301Z,2.80
2018-07-01T07:35:07.196Z,1.40
2018-07-01T07:35:41.159Z,2.40
2018-07-01T07:36:17.434Z,0.90
2018-07-01T07:36:51.370Z,1.70
2018-07-01T07:37:25.251Z,5.50
2018-07-01T07:37:59.101Z,1.10
2018-07-01T07:38:33.101Z,1.60
2018-07-01T07:39:08.673Z,1.70
2018-07-01T07:39:42.537Z,2.67
2018-07-01T07:40:16.747Z,1.40
2018-07-01T07:40:50.717Z,1.83
2018-07-01T07:41:24.607Z,3.63
2018-07-01T07:41:58.544Z,2.87
2018-07-01T07:42:32.773Z,1.00
2018-07-01T07:43:06.619Z,3.37
2018-07-01T07:43:40.878Z,2.27
2018-07-01T07:44:14.758Z,1.80
2018-07-01T07:44:48.678Z,4.00
2018-07-01T07:45:22.853Z,4.00
2018-07-01T07:45:56.743Z,2.00
2018-07-01T07:46:31.753Z,1.13
2018-07-01T07:47:05.985Z,1.50
2018-07-01T07:47:39.885Z,2.43
2018-07-01T07:48:13.846Z,3.57
2018-07-01T07:48:47.909Z,2.23
2018-07-01T07:49:21.813Z,1.30
2018-07-01T07:49:55.713Z,1.00
2018-07-01T07:50:30.295Z,1.10
2018-07-01T07:51:04.373Z,2.37
2018-07-01T07:51:38.255Z,1.50
2018-07-01T07:52:12.189Z,1.20
2018-07-01T07:52:46.644Z,1.40
2018-07-01T07:53:20.691Z,0.90
2018-07-01T07:53:54.906Z,1.00
2018-07-01T07:54:29.020Z,2.07
2018-07-01T07:55:02.889Z,2.93
2018-07-01T07:55:37.444Z,2.73